Nuth, Netherlands
Current Conditions -  °F | °C
As of 3:25 PM on Tuesday 21 Oct 2014 (Local Time) from EHBK Reporting Station
Light Rain Light Rain  
Wind Chill: 57°   Ceiling: 1700
Heat Index: 57°   Visibility: 6mi
Dew Point: 54°   Wind: 24mph
Humidity: 88%   Direction: 220°SW
Pressure: 29.53"   Gusts: NA
Location:  50.92°N, 5.89°E
Report Text: EHBK 211325Z AUTO 22021KT 190V250 9999 -RA FEW012 SCT014 BKN01714/12 Q1000 TEMPO 25025G40KT 4000 SHRA BKN010 SCT025CB
Loading
Personal Weather Stations






























Interactive Weather Map
Tropical Storm Tracking
New forecast layout! Learn more

10-Day Weather Forecast

Advertisements
Track Severe Weather on mobile